Rechercher aéroport 
image banner adimage banner adimage banner ad
image banner ad

94CA - Kaiser Hospital

Situé à Fontana, United States

ICAO - 94CA, IATA -

Données fournies par Airmate  

Information générale

Coordonnées: N34°4'21" W117°25'57"
Élévation : 1214 feet MSL.
Variation magnétique : 14° East
Voir autres Aéroports à California

Données opérationnelles

Special qualification required
Heure actuelle UTC:
Heure actuelle locale:
Météo à : KRAL - Riverside Muni ( 13 km )
METAR: KRAL 251053Z AUTO 00000KT 10SM CLR 19/16 A2997 RMK AO2 SLP133 T01890156
Voir NOTAMs / SUP AIP / TFR affectant cet aéroport [VIEW]
Fréquences de communication: [VIEW]

Pistes:

Coordonnées de l'aéroport

Adresse: Fontana United States

Vue satellite de 94CA